Time;durP1;ratioP1;P1;durP2;ratioP2;P2;SDS_P1;SDS_P2;PMS_P1;PMS_P2;Temp;Humidity;BMP_temperature;BMP_pressure;BME280_temperature;BME280_humidity;BME280_pressure;Samples;Min_cycle;Max_cycle;Signal;HPM_P1;HPM_P2
2021/09/29 00:01:17;;;;;;;;;;;14.80;99.90;;;;;;5015296;28;19905;-76
2021/09/29 00:03:43;;;;;;;;;;;14.70;99.90;;;;;;5015107;28;19909;-77
2021/09/29 00:06:08;;;;;;;;;;;14.70;99.90;;;;;;5015480;28;19921;-77
2021/09/29 00:08:34;;;;;;;;;;;14.70;99.90;;;;;;5015669;28;19920;-77
2021/09/29 00:11:00;;;;;;;;;;;14.70;99.90;;;;;;5014189;28;19905;-77
2021/09/29 00:13:26;;;;;;;;;;;14.70;99.90;;;;;;5015489;28;19906;-77
2021/09/29 00:15:52;;;;;;;;;;;14.80;99.90;;;;;;5015387;28;19909;-78
2021/09/29 00:18:18;;;;;;;;;;;14.70;99.90;;;;;;5015414;28;19905;-76
2021/09/29 00:20:44;;;;;;;;;;;14.70;99.90;;;;;;5015437;28;19913;-77
2021/09/29 00:23:09;;;;;;;;;;;14.60;99.90;;;;;;5015297;28;19997;-76
2021/09/29 00:25:35;;;;;;;;;;;14.50;99.90;;;;;;5015235;28;20358;-77
2021/09/29 00:28:02;;;;;;;;;;;14.50;99.90;;;;;;5015170;28;20330;-77
2021/09/29 00:30:31;;;;;;;;;;;14.50;99.90;;;;;;5013840;28;20290;-76
2021/09/29 00:33:01;;;;;;;;;;;14.40;99.90;;;;;;5015167;28;19905;-77
2021/09/29 00:35:27;;;;;;;;;;;14.40;99.90;;;;;;5015324;28;20424;-77
2021/09/29 00:37:52;;;;;;;;;;;14.30;99.90;;;;;;5015127;28;19910;-77
2021/09/29 00:40:18;;;;;;;;;;;14.40;99.90;;;;;;5015029;28;19906;-76
2021/09/29 00:42:44;;;;;;;;;;;14.30;99.90;;;;;;5014953;28;19913;-76
2021/09/29 00:45:09;;;;;;;;;;;14.30;99.90;;;;;;5013635;28;19905;-76
2021/09/29 00:47:36;;;;;;;;;;;14.20;99.90;;;;;;5013585;28;20055;-78
2021/09/29 00:50:03;;;;;;;;;;;14.20;99.90;;;;;;5014748;28;19909;-77
2021/09/29 00:52:29;;;;;;;;;;;14.20;99.90;;;;;;5014781;28;20246;-77
2021/09/29 00:54:55;;;;;;;;;;;14.30;99.90;;;;;;5014770;28;19905;-76
2021/09/29 00:57:21;;;;;;;;;;;14.20;99.90;;;;;;5013451;28;19911;-76
2021/09/29 00:59:46;;;;;;;;;;;14.30;99.90;;;;;;5014948;28;20317;-76
2021/09/29 01:02:12;;;;;;;;;;;14.30;99.90;;;;;;5014833;28;20281;-77
2021/09/29 01:04:37;;;;;;;;;;;14.30;99.90;;;;;;5014328;28;19906;-77
2021/09/29 01:07:07;;;;;;;;;;;14.40;99.90;;;;;;5014565;28;19914;-77
2021/09/29 01:09:33;;;;;;;;;;;14.40;99.90;;;;;;5014374;28;19924;-77
2021/09/29 01:12:14;;;;;;;;;;;14.30;99.90;;;;;;5014769;28;19905;-76
2021/09/29 01:14:53;;;;;;;;;;;14.30;99.90;;;;;;5012995;28;19905;-77
2021/09/29 01:17:19;;;;;;;;;;;14.30;99.90;;;;;;5013136;28;19905;-77
2021/09/29 01:19:45;;;;;;;;;;;14.30;99.90;;;;;;5014347;28;20361;-76
2021/09/29 01:22:18;;;;;;;;;;;14.30;99.90;;;;;;5014608;28;19959;-77
2021/09/29 01:24:49;;;;;;;;;;;14.30;99.90;;;;;;5014276;28;19906;-78
2021/09/29 01:27:15;;;;;;;;;;;14.30;99.90;;;;;;5014228;28;19913;-77
2021/09/29 01:29:41;;;;;;;;;;;14.20;99.90;;;;;;5014599;28;19916;-76
2021/09/29 01:32:08;;;;;;;;;;;14.20;99.90;;;;;;5014297;28;19905;-77
2021/09/29 01:34:33;;;;;;;;;;;14.20;99.90;;;;;;5014125;28;19909;-76
2021/09/29 01:37:04;;;;;;;;;;;14.30;99.90;;;;;;5014079;28;20262;-77
2021/09/29 01:39:30;;;;;;;;;;;14.40;99.90;;;;;;5014158;28;19909;-77
2021/09/29 01:41:56;;;;;;;;;;;14.40;99.90;;;;;;5012776;28;19913;-77
2021/09/29 01:44:21;;;;;;;;;;;14.50;99.90;;;;;;5014325;28;19956;-76
2021/09/29 01:46:47;;;;;;;;;;;14.40;99.90;;;;;;5014199;28;20276;-77
2021/09/29 01:49:28;;;;;;;;;;;14.50;99.90;;;;;;5013968;28;20370;-77
2021/09/29 01:51:54;;;;;;;;;;;14.60;99.90;;;;;;5013932;28;20370;-77
2021/09/29 01:54:23;;;;;;;;;;;14.60;99.90;;;;;;5014040;28;19906;-78
2021/09/29 01:56:49;;;;;;;;;;;14.60;99.90;;;;;;5014051;28;19912;-78
2021/09/29 01:59:15;;;;;;;;;;;14.70;99.90;;;;;;5012600;28;19905;-77
2021/09/29 02:01:42;;;;;;;;;;;14.60;99.90;;;;;;5014102;28;19984;-77
2021/09/29 02:04:08;;;;;;;;;;;14.70;99.90;;;;;;5014028;28;19913;-77
2021/09/29 02:06:48;;;;;;;;;;;14.80;99.90;;;;;;5013398;28;20366;-77
2021/09/29 02:09:13;;;;;;;;;;;14.90;99.90;;;;;;5013849;28;19956;-77
2021/09/29 02:11:39;;;;;;;;;;;14.90;99.90;;;;;;5013834;28;19913;-77
2021/09/29 02:14:05;;;;;;;;;;;14.90;99.90;;;;;;5013930;28;19995;-77
2021/09/29 02:16:31;;;;;;;;;;;14.80;99.90;;;;;;5013856;28;19996;-78
2021/09/29 02:18:56;;;;;;;;;;;14.80;99.90;;;;;;5012416;28;20033;-76
2021/09/29 02:21:22;;;;;;;;;;;14.80;99.90;;;;;;5013759;28;20281;-77
2021/09/29 02:23:47;;;;;;;;;;;14.70;99.90;;;;;;5013638;28;19912;-77
2021/09/29 02:26:13;;;;;;;;;;;14.60;99.90;;;;;;5016179;28;20381;-77
2021/09/29 02:28:39;;;;;;;;;;;14.60;99.90;;;;;;5017490;28;20369;-77
2021/09/29 02:31:04;;;;;;;;;;;14.60;99.90;;;;;;5016203;28;19956;-77
2021/09/29 02:33:30;;;;;;;;;;;14.70;99.90;;;;;;5017379;28;20289;-77
2021/09/29 02:35:55;;;;;;;;;;;14.70;99.90;;;;;;5017771;28;19932;-77
2021/09/29 02:38:21;;;;;;;;;;;14.60;99.90;;;;;;5015966;28;19910;-77
2021/09/29 02:40:46;;;;;;;;;;;14.50;99.90;;;;;;5017265;28;20386;-77
2021/09/29 02:43:12;;;;;;;;;;;14.60;99.90;;;;;;5017211;28;19905;-77
2021/09/29 02:45:38;;;;;;;;;;;14.60;99.90;;;;;;5017180;28;20000;-78
2021/09/29 02:48:03;;;;;;;;;;;14.50;99.90;;;;;;5017131;28;19913;-77
2021/09/29 02:50:29;;;;;;;;;;;14.40;99.90;;;;;;5016975;28;20377;-77
2021/09/29 02:52:55;;;;;;;;;;;14.40;99.90;;;;;;5015749;28;19906;-77
2021/09/29 02:55:20;;;;;;;;;;;14.20;99.90;;;;;;5017094;28;19944;-77
2021/09/29 02:57:46;;;;;;;;;;;14.00;99.90;;;;;;5016934;28;19928;-77
2021/09/29 03:00:12;;;;;;;;;;;14.00;99.90;;;;;;5017301;28;19905;-77
2021/09/29 03:02:37;;;;;;;;;;;13.90;99.90;;;;;;5016878;28;19906;-77
2021/09/29 03:05:03;;;;;;;;;;;13.70;99.90;;;;;;5016669;28;19909;-77
2021/09/29 03:07:29;;;;;;;;;;;13.70;99.90;;;;;;5016935;28;19905;-77
2021/09/29 03:09:54;;;;;;;;;;;13.70;99.90;;;;;;5016664;28;19914;-77
2021/09/29 03:12:20;;;;;;;;;;;13.60;99.90;;;;;;5016700;28;19996;-77
2021/09/29 03:14:45;;;;;;;;;;;13.70;99.90;;;;;;5016886;28;19911;-77
2021/09/29 03:17:11;;;;;;;;;;;13.70;99.90;;;;;;5016633;28;19905;-77
2021/09/29 03:19:37;;;;;;;;;;;13.80;99.90;;;;;;5015281;28;19906;-77
2021/09/29 03:22:04;;;;;;;;;;;13.80;99.90;;;;;;5016539;28;20032;-77
2021/09/29 03:24:30;;;;;;;;;;;13.80;99.90;;;;;;5016480;28;19912;-77
2021/09/29 03:26:55;;;;;;;;;;;13.60;99.90;;;;;;5016387;28;19905;-77
2021/09/29 03:29:21;;;;;;;;;;;13.50;99.90;;;;;;5014994;28;19909;-76
2021/09/29 03:31:47;;;;;;;;;;;13.40;99.90;;;;;;5016667;28;19906;-78
2021/09/29 03:34:12;;;;;;;;;;;13.40;99.90;;;;;;5016340;28;20385;-77
2021/09/29 03:36:38;;;;;;;;;;;13.40;99.90;;;;;;5016559;28;19987;-77
2021/09/29 03:39:04;;;;;;;;;;;13.30;99.90;;;;;;5016125;28;19999;-77
2021/09/29 03:41:29;;;;;;;;;;;13.40;99.90;;;;;;5016444;28;19912;-76
2021/09/29 03:43:55;;;;;;;;;;;13.20;99.90;;;;;;5016085;28;19959;-77
2021/09/29 03:46:21;;;;;;;;;;;13.10;99.90;;;;;;5016119;28;20373;-77
2021/09/29 03:48:47;;;;;;;;;;;13.10;99.90;;;;;;5015931;28;20285;-77
2021/09/29 03:51:12;;;;;;;;;;;13.00;99.90;;;;;;5015938;28;19909;-77
2021/09/29 03:53:38;;;;;;;;;;;12.90;99.90;;;;;;5015894;28;19905;-77
2021/09/29 03:56:03;;;;;;;;;;;12.80;99.90;;;;;;5015977;28;19964;-77
2021/09/29 03:58:29;;;;;;;;;;;12.80;99.90;;;;;;5014550;28;20000;-77
2021/09/29 04:00:55;;;;;;;;;;;12.80;99.90;;;;;;5015789;28;20358;-77
2021/09/29 04:03:20;;;;;;;;;;;12.90;99.90;;;;;;5014427;28;19912;-77
2021/09/29 04:05:47;;;;;;;;;;;12.90;99.90;;;;;;5015470;28;19948;-76
2021/09/29 04:08:13;;;;;;;;;;;12.80;99.90;;;;;;5014365;28;19909;-77
2021/09/29 04:10:39;;;;;;;;;;;12.80;99.90;;;;;;5015578;28;20008;-77
2021/09/29 04:13:06;;;;;;;;;;;12.80;99.90;;;;;;5015496;28;19974;-76
2021/09/29 04:15:32;;;;;;;;;;;12.80;99.90;;;;;;5015913;28;19906;-76
2021/09/29 04:17:58;;;;;;;;;;;12.80;99.90;;;;;;5015505;28;20366;-77
2021/09/29 04:20:23;;;;;;;;;;;12.60;99.90;;;;;;5015642;28;19977;-77
2021/09/29 04:22:49;;;;;;;;;;;12.60;99.90;;;;;;5015388;28;19913;-78
2021/09/29 04:25:14;;;;;;;;;;;12.50;99.90;;;;;;5015351;28;20447;-77
2021/09/29 04:27:40;;;;;;;;;;;12.40;99.90;;;;;;5015628;28;19905;-76
2021/09/29 04:30:06;;;;;;;;;;;12.30;99.90;;;;;;5015273;28;19963;-77
2021/09/29 04:32:32;;;;;;;;;;;12.30;99.90;;;;;;5015063;28;19905;-77
2021/09/29 04:34:57;;;;;;;;;;;12.30;99.90;;;;;;5015134;28;19905;-77
2021/09/29 04:37:23;;;;;;;;;;;12.20;99.90;;;;;;5015053;28;19912;-77
2021/09/29 04:39:49;;;;;;;;;;;12.10;99.90;;;;;;5015068;28;19905;-77
2021/09/29 04:42:14;;;;;;;;;;;12.00;99.90;;;;;;5015261;28;19905;-78
2021/09/29 04:44:40;;;;;;;;;;;11.90;99.90;;;;;;5014960;28;19905;-76
2021/09/29 04:47:06;;;;;;;;;;;11.90;99.90;;;;;;5014859;28;19944;-76
2021/09/29 04:49:31;;;;;;;;;;;12.00;99.90;;;;;;5014504;28;19909;-77
2021/09/29 04:51:57;;;;;;;;;;;12.00;99.90;;;;;;5014959;28;19928;-76
2021/09/29 04:54:22;;;;;;;;;;;11.90;99.90;;;;;;5014964;28;20004;-77
2021/09/29 04:56:48;;;;;;;;;;;11.80;99.90;;;;;;5014764;28;19905;-77
2021/09/29 04:59:14;;;;;;;;;;;11.80;99.90;;;;;;5013478;28;19928;-77
2021/09/29 05:01:40;;;;;;;;;;;11.80;99.90;;;;;;5014760;28;19906;-77
2021/09/29 05:04:06;;;;;;;;;;;11.70;99.90;;;;;;5014866;28;20000;-76
2021/09/29 05:06:32;;;;;;;;;;;11.70;99.90;;;;;;5014264;28;20365;-77
2021/09/29 05:08:57;;;;;;;;;;;11.60;99.90;;;;;;5013214;28;20405;-77
2021/09/29 05:11:33;;;;;;;;;;;11.70;99.90;;;;;;5014790;28;19996;-77
2021/09/29 05:13:59;;;;;;;;;;;11.80;99.90;;;;;;5014594;28;19960;-76
2021/09/29 05:16:25;;;;;;;;;;;11.80;99.90;;;;;;5013421;28;19909;-76
2021/09/29 05:18:50;;;;;;;;;;;11.70;99.90;;;;;;5014399;28;19909;-76
2021/09/29 05:21:16;;;;;;;;;;;11.50;99.90;;;;;;5014783;28;20266;-77
2021/09/29 05:23:42;;;;;;;;;;;11.60;99.90;;;;;;5014427;28;19963;-76
2021/09/29 05:26:07;;;;;;;;;;;11.60;99.90;;;;;;5014396;28;19912;-77
2021/09/29 05:28:37;;;;;;;;;;;11.60;99.90;;;;;;5014302;28;20385;-77
2021/09/29 05:31:03;;;;;;;;;;;11.60;99.90;;;;;;5014666;28;20310;-77
2021/09/29 05:33:28;;;;;;;;;;;11.70;99.90;;;;;;5014341;28;19944;-76
2021/09/29 05:35:54;;;;;;;;;;;11.60;99.90;;;;;;5014163;28;19905;-76
2021/09/29 05:38:20;;;;;;;;;;;11.70;99.90;;;;;;5014116;28;20005;-77
2021/09/29 05:40:46;;;;;;;;;;;11.50;99.90;;;;;;5014067;28;19905;-77
2021/09/29 05:43:12;;;;;;;;;;;11.60;99.90;;;;;;5014007;28;19905;-77
2021/09/29 05:45:37;;;;;;;;;;;11.60;99.90;;;;;;5014185;28;20024;-77
2021/09/29 05:48:03;;;;;;;;;;;11.60;99.90;;;;;;5014004;28;19949;-76
2021/09/29 05:50:29;;;;;;;;;;;11.50;99.90;;;;;;5013887;28;19916;-77
2021/09/29 05:52:55;;;;;;;;;;;11.40;99.90;;;;;;5012626;28;19905;-76
2021/09/29 05:55:21;;;;;;;;;;;11.30;99.90;;;;;;5014358;28;19959;-77
2021/09/29 05:57:46;;;;;;;;;;;11.30;99.90;;;;;;5013885;28;19909;-76
2021/09/29 06:00:12;;;;;;;;;;;11.20;99.90;;;;;;5014703;28;19955;-77
2021/09/29 06:02:39;;;;;;;;;;;11.30;99.90;;;;;;5017959;28;19905;-77
2021/09/29 06:05:06;;;;;;;;;;;11.20;99.90;;;;;;5017727;28;19913;-77
2021/09/29 06:07:31;;;;;;;;;;;11.20;99.90;;;;;;5017909;28;19905;-76
2021/09/29 06:09:57;;;;;;;;;;;11.20;99.90;;;;;;5017775;28;19920;-77
2021/09/29 06:12:23;;;;;;;;;;;11.20;99.90;;;;;;5017984;28;19909;-77
2021/09/29 06:14:50;;;;;;;;;;;11.20;99.90;;;;;;5016494;28;19912;-77
2021/09/29 06:19:49;;;;;;;;;;;11.30;99.90;;;;;;5017827;28;19909;-76
2021/09/29 06:22:15;;;;;;;;;;;11.30;99.90;;;;;;5017657;28;20280;-77
2021/09/29 06:24:42;;;;;;;;;;;11.30;99.90;;;;;;5017540;28;19905;-76
2021/09/29 06:27:09;;;;;;;;;;;11.40;99.90;;;;;;5017518;28;19905;-77
2021/09/29 06:29:34;;;;;;;;;;;11.60;99.90;;;;;;5017412;28;19949;-76
2021/09/29 06:32:02;;;;;;;;;;;11.70;99.90;;;;;;5016168;28;20365;-77
2021/09/29 06:34:29;;;;;;;;;;;11.80;99.90;;;;;;5017522;28;20293;-77
2021/09/29 06:36:56;;;;;;;;;;;12.00;99.90;;;;;;5017322;28;20350;-77
2021/09/29 06:39:22;;;;;;;;;;;12.40;99.90;;;;;;5017150;28;19906;-77
2021/09/29 06:41:48;;;;;;;;;;;12.50;99.90;;;;;;5017207;28;19905;-77
2021/09/29 06:44:13;;;;;;;;;;;12.60;99.90;;;;;;5017182;28;19916;-77
2021/09/29 06:46:39;;;;;;;;;;;12.70;99.90;;;;;;5017204;28;20419;-77
2021/09/29 06:49:05;;;;;;;;;;;12.80;99.90;;;;;;5017001;28;19913;-77
2021/09/29 06:51:31;;;;;;;;;;;12.90;99.90;;;;;;5017071;28;19928;-77
2021/09/29 06:53:56;;;;;;;;;;;13.00;99.90;;;;;;5017216;28;19906;-77
2021/09/29 06:56:22;;;;;;;;;;;13.00;99.90;;;;;;5017116;28;20277;-77
2021/09/29 06:58:51;;;;;;;;;;;12.80;99.90;;;;;;5017076;28;19909;-77
2021/09/29 07:01:17;;;;;;;;;;;13.20;99.90;;;;;;5017116;28;19992;-77
2021/09/29 07:03:43;;;;;;;;;;;13.30;99.90;;;;;;5016888;28;19992;-77
2021/09/29 07:06:09;;;;;;;;;;;14.00;99.90;;;;;;5015253;28;19988;-77
2021/09/29 07:08:34;;;;;;;;;;;14.00;99.90;;;;;;5016696;28;20369;-77
2021/09/29 07:11:00;;;;;;;;;;;13.70;99.90;;;;;;5016325;28;19909;-78
2021/09/29 07:13:26;;;;;;;;;;;14.00;99.90;;;;;;5016718;28;19906;-77
2021/09/29 07:15:51;;;;;;;;;;;14.00;99.90;;;;;;5015418;28;19949;-78
2021/09/29 07:18:17;;;;;;;;;;;14.30;99.90;;;;;;5016826;28;19956;-77
2021/09/29 07:20:43;;;;;;;;;;;13.90;99.90;;;;;;5016603;28;19905;-78
2021/09/29 07:23:09;;;;;;;;;;;14.30;99.90;;;;;;5016543;28;20293;-77
2021/09/29 07:25:35;;;;;;;;;;;14.40;99.90;;;;;;5016453;28;20409;-77
2021/09/29 07:28:02;;;;;;;;;;;14.40;99.90;;;;;;5016391;28;19955;-78
2021/09/29 07:30:27;;;;;;;;;;;14.00;99.90;;;;;;5015065;28;19913;-78
2021/09/29 07:32:55;;;;;;;;;;;14.40;99.90;;;;;;5016355;28;20388;-78
2021/09/29 07:35:21;;;;;;;;;;;14.60;99.90;;;;;;5016312;28;20289;-77
2021/09/29 07:37:46;;;;;;;;;;;14.60;99.90;;;;;;5014969;28;19905;-78
2021/09/29 07:40:13;;;;;;;;;;;15.30;99.90;;;;;;5016274;28;20420;-78
2021/09/29 07:42:39;;;;;;;;;;;15.90;99.90;;;;;;5016214;28;19952;-78
2021/09/29 07:45:05;;;;;;;;;;;16.30;99.90;;;;;;5016041;28;19906;-78
2021/09/29 07:47:31;;;;;;;;;;;16.40;99.90;;;;;;5016025;28;19906;-77
2021/09/29 07:49:57;;;;;;;;;;;15.70;99.90;;;;;;5015818;28;20008;-78
2021/09/29 07:52:23;;;;;;;;;;;15.90;99.90;;;;;;5016063;28;20353;-78
2021/09/29 07:54:48;;;;;;;;;;;16.40;99.90;;;;;;5015824;28;19905;-78
2021/09/29 07:57:14;;;;;;;;;;;17.20;99.90;;;;;;5014568;28;19913;-79
2021/09/29 07:59:39;;;;;;;;;;;17.10;99.90;;;;;;5014588;28;20298;-78
2021/09/29 08:02:05;;;;;;;;;;;17.10;99.90;;;;;;5015867;28;19916;-79
2021/09/29 08:04:31;;;;;;;;;;;17.70;99.90;;;;;;5015537;28;20027;-77
2021/09/29 08:06:56;;;;;;;;;;;18.40;99.50;;;;;;5015659;28;20258;-78
2021/09/29 08:09:27;;;;;;;;;;;18.50;97.10;;;;;;5014243;28;19913;-77
2021/09/29 08:11:52;;;;;;;;;;;19.70;96.80;;;;;;5015538;28;19913;-78
2021/09/29 08:14:18;;;;;;;;;;;18.40;96.00;;;;;;5015666;28;19905;-79
2021/09/29 08:16:48;;;;;;;;;;;19.40;95.30;;;;;;5015480;28;19979;-78
2021/09/29 08:19:14;;;;;;;;;;;19.80;92.90;;;;;;5014135;28;20407;-77
2021/09/29 08:21:41;;;;;;;;;;;20.30;92.60;;;;;;5014105;28;20373;-78
2021/09/29 08:24:36;;;;;;;;;;;20.80;91.10;;;;;;5013250;28;19948;-78
2021/09/29 08:27:06;;;;;;;;;;;20.10;90.00;;;;;;5015056;28;19909;-79
2021/09/29 08:29:50;;;;;;;;;;;20.30;90.40;;;;;;5015437;28;19910;-79
2021/09/29 08:34:57;;;;;;;;;;;20.30;86.50;;;;;;5015545;28;19905;-79
2021/09/29 08:37:40;;;;;;;;;;;20.20;87.50;;;;;;5015176;28;19905;-78
2021/09/29 08:40:19;;;;;;;;;;;20.20;87.10;;;;;;5013568;28;19909;-78
2021/09/29 08:45:32;;;;;;;;;;;21.10;83.40;;;;;;5015009;28;19913;-78
2021/09/29 08:48:08;;;;;;;;;;;20.50;82.80;;;;;;5013179;28;19912;-78
2021/09/29 08:51:07;;;;;;;;;;;20.60;84.80;;;;;;5015001;28;20387;-78
2021/09/29 09:15:44;;;;;;;;;;;26.40;63.80;;;;;;5014654;28;19911;-78
2021/09/29 09:18:10;;;;;;;;;;;26.80;60.60;;;;;;5012911;28;19913;-79
2021/09/29 09:20:40;;;;;;;;;;;27.90;59.80;;;;;;5014425;28;19906;-79
2021/09/29 09:23:06;;;;;;;;;;;29.00;57.00;;;;;;5012847;28;19912;-79
2021/09/29 09:25:40;;;;;;;;;;;29.70;54.50;;;;;;5014607;28;19906;-80
2021/09/29 09:28:06;;;;;;;;;;;29.80;53.70;;;;;;5012790;28;19909;-79
2021/09/29 09:30:34;;;;;;;;;;;30.90;51.70;;;;;;5014245;28;19909;-79
2021/09/29 09:32:59;;;;;;;;;;;31.50;50.10;;;;;;5012982;28;19905;-80
2021/09/29 09:35:28;;;;;;;;;;;31.30;49.50;;;;;;5014028;28;19992;-80
2021/09/29 09:37:56;;;;;;;;;;;31.30;47.60;;;;;;5012755;28;19957;-78
2021/09/29 09:40:24;;;;;;;;;;;29.10;50.00;;;;;;5014090;28;19905;-79
2021/09/29 09:42:56;;;;;;;;;;;30.40;50.70;;;;;;5012780;28;19927;-79
2021/09/29 09:45:45;;;;;;;;;;;27.50;51.10;;;;;;5014482;28;19906;-79
2021/09/29 09:48:22;;;;;;;;;;;25.00;54.10;;;;;;5014101;28;19911;-79
2021/09/29 09:50:48;;;;;;;;;;;27.00;52.50;;;;;;5013945;28;19910;-79
2021/09/29 09:53:15;;;;;;;;;;;29.80;50.60;;;;;;5012650;28;19955;-79
2021/09/29 09:55:41;;;;;;;;;;;30.00;48.20;;;;;;5014183;28;19906;-79
2021/09/29 09:58:07;;;;;;;;;;;30.50;47.70;;;;;;5013912;28;19976;-79
2021/09/29 10:00:34;;;;;;;;;;;30.10;48.20;;;;;;5012564;28;20392;-79
2021/09/29 10:03:01;;;;;;;;;;;29.50;49.00;;;;;;5014252;28;19952;-80
2021/09/29 10:05:28;;;;;;;;;;;32.00;46.20;;;;;;5012359;28;20285;-79
2021/09/29 10:07:54;;;;;;;;;;;28.80;47.50;;;;;;5014078;28;19913;-79
2021/09/29 10:10:31;;;;;;;;;;;31.80;45.40;;;;;;5013720;28;19920;-80
2021/09/29 10:26:24;;;;;;;;;;;38.70;35.60;;;;;;5013609;28;19905;-79
2021/09/29 10:29:01;;;;;;;;;;;40.40;35.60;;;;;;5012097;28;19913;-79
2021/09/29 10:33:57;;;;;;;;;;;38.30;37.30;;;;;;5013595;28;19906;-78
2021/09/29 10:36:42;;;;;;;;;;;33.30;38.20;;;;;;5012341;28;20000;-78
2021/09/29 10:44:42;;;;;;;;;;;36.40;36.40;;;;;;5013242;28;20037;-79
2021/09/29 11:30:38;;;;;;;;;;;40.60;33.80;;;;;;5016152;28;19909;-79
2021/09/29 11:33:07;;;;;;;;;;;39.10;32.90;;;;;;5016307;28;20338;-79
2021/09/29 12:08:51;;;;;;;;;;;33.60;35.60;;;;;;5015755;28;20011;-80
2021/09/29 12:11:20;;;;;;;;;;;30.80;38.20;;;;;;5015717;28;19909;-80
2021/09/29 12:13:55;;;;;;;;;;;30.40;40.00;;;;;;5014357;28;20398;-80
2021/09/29 12:16:29;;;;;;;;;;;29.10;42.80;;;;;;5016069;28;20007;-79
2021/09/29 12:18:58;;;;;;;;;;;27.70;44.70;;;;;;5015394;28;20373;-80
2021/09/29 12:21:37;;;;;;;;;;;26.70;46.00;;;;;;5015467;28;19909;-80
2021/09/29 12:24:04;;;;;;;;;;;26.00;48.90;;;;;;5014414;28;19912;-80
2021/09/29 12:26:38;;;;;;;;;;;24.90;49.80;;;;;;5014073;28;20282;-80
2021/09/29 12:29:15;;;;;;;;;;;24.50;51.70;;;;;;5013774;28;19910;-79
2021/09/29 12:32:07;;;;;;;;;;;23.80;52.00;;;;;;5015345;28;20388;-79
2021/09/29 12:34:30;;;;;;;;;;;23.60;51.90;;;;;;5014951;28;20285;-79
2021/09/29 12:37:06;;;;;;;;;;;23.60;52.40;;;;;;5015139;28;20250;-79
2021/09/29 12:39:31;;;;;;;;;;;24.10;51.80;;;;;;5015134;28;19959;-79
2021/09/29 12:41:57;;;;;;;;;;;25.60;50.10;;;;;;5013790;28;19905;-80
2021/09/29 12:44:23;;;;;;;;;;;31.00;45.50;;;;;;5015229;28;19910;-80
2021/09/29 12:47:07;;;;;;;;;;;33.90;40.10;;;;;;5013718;28;20365;-81
2021/09/29 12:49:33;;;;;;;;;;;32.10;40.40;;;;;;5013437;28;19906;-80
2021/09/29 12:52:11;;;;;;;;;;;30.50;41.90;;;;;;5014938;28;19952;-80
2021/09/29 12:54:39;;;;;;;;;;;31.50;40.80;;;;;;5013324;28;19905;-80
2021/09/29 12:57:05;;;;;;;;;;;34.70;40.30;;;;;;5013504;28;20365;-81
2021/09/29 12:59:30;;;;;;;;;;;37.40;37.90;;;;;;5013439;28;19909;-79
2021/09/29 13:01:56;;;;;;;;;;;41.70;34.60;;;;;;5014711;28;19905;-79
2021/09/29 13:04:22;;;;;;;;;;;42.90;33.60;;;;;;5013349;28;19913;-80
2021/09/29 13:06:48;;;;;;;;;;;45.40;32.20;;;;;;5014305;28;19960;-80
2021/09/29 13:09:13;;;;;;;;;;;43.50;31.40;;;;;;5012964;28;20340;-80
2021/09/29 13:11:39;;;;;;;;;;;44.30;31.60;;;;;;5014543;28;19960;-79
2021/09/29 13:14:05;;;;;;;;;;;43.10;31.40;;;;;;5013220;28;20005;-79
2021/09/29 13:16:32;;;;;;;;;;;43.00;31.90;;;;;;5014540;28;19906;-79
2021/09/29 13:19:10;;;;;;;;;;;40.30;31.60;;;;;;5013038;28;20008;-78
2021/09/29 13:22:16;;;;;;;;;;;36.70;34.00;;;;;;5012947;28;19911;-77
2021/09/29 13:35:20;;;;;;;;;;;35.90;35.00;;;;;;5014470;28;19948;-79
2021/09/29 13:37:46;;;;;;;;;;;41.30;33.70;;;;;;5012657;28;20000;-79
2021/09/29 13:40:11;;;;;;;;;;;44.00;31.50;;;;;;5014077;28;20028;-79
2021/09/29 13:42:37;;;;;;;;;;;44.30;31.60;;;;;;5014032;28;20381;-80
2021/09/29 13:45:06;;;;;;;;;;;44.90;30.30;;;;;;5014223;28;19909;-79
2021/09/29 13:47:32;;;;;;;;;;;43.90;31.00;;;;;;5012774;28;19909;-79
2021/09/29 13:49:57;;;;;;;;;;;44.40;30.60;;;;;;5013882;28;19905;-80
2021/09/29 13:52:25;;;;;;;;;;;44.70;30.00;;;;;;5012472;28;19971;-80
2021/09/29 13:54:54;;;;;;;;;;;45.60;30.00;;;;;;5012725;28;19912;-79
2021/09/29 13:57:44;;;;;;;;;;;44.60;30.00;;;;;;5001995;28;19917;-79
2021/09/29 14:30:10;;;;;;;;;;;41.40;30.90;;;;;;5016749;28;19962;-79
2021/09/29 14:33:17;;;;;;;;;;;40.10;31.40;;;;;;5032250;28;19932;-79
2021/09/29 14:35:28;;;;;;;;;;;39.70;31.50;;;;;;5016430;28;19913;-79
2021/09/29 14:37:53;;;;;;;;;;;38.10;30.40;;;;;;5017069;28;19906;-79
2021/09/29 14:40:20;;;;;;;;;;;37.80;31.80;;;;;;5032156;28;19996;-79
2021/09/29 14:42:46;;;;;;;;;;;38.70;30.80;;;;;;5032217;28;19996;-79
2021/09/29 14:45:11;;;;;;;;;;;37.30;32.00;;;;;;5016647;28;19905;-78
2021/09/29 14:47:37;;;;;;;;;;;38.20;31.00;;;;;;5016424;28;19951;-79
2021/09/29 14:50:03;;;;;;;;;;;37.50;31.20;;;;;;5016628;28;19912;-79
2021/09/29 14:52:29;;;;;;;;;;;36.90;31.70;;;;;;5031979;28;20420;-79
2021/09/29 14:54:54;;;;;;;;;;;37.70;31.70;;;;;;5016325;28;19906;-79
2021/09/29 14:57:20;;;;;;;;;;;38.80;31.60;;;;;;5016106;28;19959;-78
2021/09/29 14:59:46;;;;;;;;;;;37.90;32.00;;;;;;5024541;28;19917;-79
2021/09/29 15:02:14;;;;;;;;;;;37.10;31.90;;;;;;5036502;28;20361;-78
2021/09/29 15:04:40;;;;;;;;;;;36.40;32.00;;;;;;5036098;28;19951;-78
2021/09/29 15:07:05;;;;;;;;;;;36.50;32.80;;;;;;5034507;28;19913;-78
2021/09/29 15:09:31;;;;;;;;;;;36.20;32.60;;;;;;5034961;28;19905;-78
2021/09/29 15:11:57;;;;;;;;;;;36.70;32.00;;;;;;5036097;28;19905;-79
2021/09/29 15:14:30;;;;;;;;;;;36.80;32.30;;;;;;5035920;28;19905;-78
2021/09/29 15:17:00;;;;;;;;;;;36.90;31.80;;;;;;5035706;28;19912;-78
2021/09/29 15:19:44;;;;;;;;;;;36.20;32.60;;;;;;5036104;28;19913;-78
2021/09/29 15:46:20;;;;;;;;;;;31.80;36.90;;;;;;5035283;28;19916;-77
2021/09/29 15:48:40;;;;;;;;;;;33.50;34.70;;;;;;5033469;28;19913;-78
2021/09/29 15:51:19;;;;;;;;;;;33.30;35.20;;;;;;5033787;28;20280;-77
2021/09/29 15:59:49;;;;;;;;;;;33.30;35.50;;;;;;5034367;28;19916;-77
2021/09/29 16:11:16;;;;;;;;;;;29.00;39.50;;;;;;5035133;28;19905;-77
2021/09/29 16:31:56;;;;;;;;;;;30.50;40.00;;;;;;5034929;28;19911;-77
2021/09/29 16:34:23;;;;;;;;;;;30.20;40.00;;;;;;5033532;28;20332;-77
2021/09/29 16:36:52;;;;;;;;;;;30.30;40.50;;;;;;5034953;28;19905;-77
2021/09/29 16:39:17;;;;;;;;;;;30.50;40.30;;;;;;5034923;28;19909;-78
2021/09/29 16:41:43;;;;;;;;;;;29.70;40.20;;;;;;5034831;28;19959;-78
2021/09/29 16:44:09;;;;;;;;;;;29.70;40.80;;;;;;5032865;28;19905;-76
2021/09/29 16:46:36;;;;;;;;;;;29.40;40.60;;;;;;5034866;28;19909;-77
2021/09/29 16:49:02;;;;;;;;;;;29.60;41.00;;;;;;5033409;28;19905;-77
2021/09/29 16:53:58;;;;;;;;;;;28.50;41.90;;;;;;5034636;28;19959;-77
2021/09/29 16:56:23;;;;;;;;;;;28.20;41.80;;;;;;5033434;28;19912;-76
2021/09/29 16:58:54;;;;;;;;;;;27.70;42.80;;;;;;5034474;28;19905;-76
2021/09/29 17:01:20;;;;;;;;;;;27.40;43.30;;;;;;5034937;28;19912;-77
2021/09/29 17:03:46;;;;;;;;;;;27.00;43.20;;;;;;5034461;28;19905;-77
2021/09/29 17:06:12;;;;;;;;;;;26.30;44.00;;;;;;5034274;28;19913;-76
2021/09/29 17:08:38;;;;;;;;;;;26.00;44.20;;;;;;5034398;28;19952;-76
2021/09/29 17:11:05;;;;;;;;;;;24.90;45.30;;;;;;5034284;28;19905;-80
2021/09/29 17:13:37;;;;;;;;;;;24.20;46.70;;;;;;5032967;28;19912;-80
2021/09/29 17:16:07;;;;;;;;;;;23.80;47.80;;;;;;5034372;28;19912;-80
2021/09/29 17:18:33;;;;;;;;;;;23.30;48.30;;;;;;5032885;28;19952;-79
2021/09/29 17:20:59;;;;;;;;;;;22.70;49.50;;;;;;5034273;28;19983;-79
2021/09/29 17:23:24;;;;;;;;;;;22.50;49.80;;;;;;5034330;28;20404;-79
2021/09/29 17:25:50;;;;;;;;;;;22.20;50.60;;;;;;5034244;28;19936;-79
2021/09/29 17:28:18;;;;;;;;;;;21.50;52.20;;;;;;5034524;28;20362;-80
2021/09/29 17:30:48;;;;;;;;;;;21.50;52.10;;;;;;5032739;28;19912;-79
2021/09/29 17:33:26;;;;;;;;;;;21.10;52.90;;;;;;5032419;28;19911;-79
2021/09/29 17:54:07;;;;;;;;;;;19.20;59.40;;;;;;5033466;28;19999;-79
2021/09/29 17:56:33;;;;;;;;;;;19.20;58.90;;;;;;5032363;28;19940;-79
2021/09/29 17:58:59;;;;;;;;;;;18.70;59.90;;;;;;5033938;28;19916;-79
2021/09/29 18:01:27;;;;;;;;;;;18.60;60.70;;;;;;5033694;28;20429;-79
2021/09/29 18:06:42;;;;;;;;;;;18.40;62.20;;;;;;5033257;28;20004;-79
2021/09/29 18:09:09;;;;;;;;;;;18.40;62.10;;;;;;5032610;28;19905;-79
2021/09/29 18:11:35;;;;;;;;;;;18.10;63.60;;;;;;5032302;28;19979;-79
2021/09/29 18:14:01;;;;;;;;;;;18.20;63.60;;;;;;5033417;28;19952;-79
2021/09/29 18:16:28;;;;;;;;;;;18.40;63.50;;;;;;5033711;28;19937;-78
2021/09/29 18:18:56;;;;;;;;;;;18.30;63.60;;;;;;5032127;28;20018;-79
2021/09/29 18:21:22;;;;;;;;;;;17.80;65.60;;;;;;5032365;28;19909;-79
2021/09/29 18:23:47;;;;;;;;;;;17.40;67.10;;;;;;5033449;28;19912;-79
2021/09/29 18:26:13;;;;;;;;;;;17.30;67.20;;;;;;5032110;28;19909;-79
2021/09/29 18:28:41;;;;;;;;;;;17.50;67.00;;;;;;5033499;28;19905;-79